Time;durP1;ratioP1;P1;durP2;ratioP2;P2;SDS_P1;SDS_P2;PMS_P1;PMS_P2;Temp;Humidity;BMP_temperature;BMP_pressure;BME280_temperature;BME280_humidity;BME280_pressure;Samples;Min_cycle;Max_cycle;Signal;HPM_P1;HPM_P2
2022/12/22 03:27:25;;;;;;;;;;;19.30;45.80;;;;;;5114112;28;20007;-69
2022/12/22 03:29:52;;;;;;;;;;;19.20;45.70;;;;;;5096508;28;20265;-70
2022/12/22 03:32:20;;;;;;;;;;;19.30;45.70;;;;;;5095808;28;19962;-70
2022/12/22 03:34:47;;;;;;;;;;;19.20;45.70;;;;;;5092454;28;20362;-70
2022/12/22 03:37:14;;;;;;;;;;;19.20;45.70;;;;;;5093075;28;19919;-69
2022/12/22 03:39:40;;;;;;;;;;;19.20;45.70;;;;;;5110982;28;19941;-69
2022/12/22 03:47:40;;;;;;;;;;;19.30;45.80;;;;;;5114674;28;19970;-69
2022/12/22 03:50:07;;;;;;;;;;;19.20;45.70;;;;;;5096607;28;19919;-69
2022/12/22 03:52:34;;;;;;;;;;;19.30;45.80;;;;;;5114553;28;19954;-69
2022/12/22 03:55:01;;;;;;;;;;;19.30;45.80;;;;;;5096253;28;19927;-70
2022/12/22 03:57:27;;;;;;;;;;;19.30;45.80;;;;;;5095729;28;19972;-69
2022/12/22 03:59:54;;;;;;;;;;;19.30;45.80;;;;;;5109773;28;19924;-69
2022/12/22 04:02:21;;;;;;;;;;;19.30;45.80;;;;;;5095110;28;19923;-69
2022/12/22 04:04:49;;;;;;;;;;;19.30;45.80;;;;;;5113803;28;19955;-69
2022/12/22 04:07:16;;;;;;;;;;;19.30;45.80;;;;;;5113717;28;19946;-70
2022/12/22 04:12:53;;;;;;;;;;;19.30;45.80;;;;;;5112718;28;19949;-70
2022/12/22 04:15:23;;;;;;;;;;;19.30;45.80;;;;;;5054400;28;19930;-69
2022/12/22 04:17:49;;;;;;;;;;;19.30;45.80;;;;;;5100933;28;20507;-69
2022/12/22 04:20:18;;;;;;;;;;;19.30;45.80;;;;;;5112391;28;19955;-69
2022/12/22 04:22:45;;;;;;;;;;;19.30;45.80;;;;;;5096108;28;19951;-69
2022/12/22 04:25:11;;;;;;;;;;;19.30;45.70;;;;;;5095983;28;19943;-69
2022/12/22 04:27:38;;;;;;;;;;;19.30;45.80;;;;;;5114447;28;19923;-69
2022/12/22 04:30:05;;;;;;;;;;;19.20;45.70;;;;;;5094989;28;19928;-69
2022/12/22 04:32:32;;;;;;;;;;;19.30;45.80;;;;;;5089893;28;19966;-69
2022/12/22 04:34:59;;;;;;;;;;;19.30;45.80;;;;;;5094272;28;19924;-69
2022/12/22 04:37:27;;;;;;;;;;;19.20;45.70;;;;;;5094724;28;19920;-69
2022/12/22 04:39:54;;;;;;;;;;;19.30;45.80;;;;;;5095686;28;19923;-69
2022/12/22 04:42:21;;;;;;;;;;;19.30;45.80;;;;;;5095919;28;19924;-69
2022/12/22 04:44:47;;;;;;;;;;;19.30;45.80;;;;;;5095340;28;20464;-69
2022/12/22 04:47:14;;;;;;;;;;;19.30;45.80;;;;;;5095480;28;19997;-69
2022/12/22 04:49:41;;;;;;;;;;;19.20;45.70;;;;;;5095576;28;19923;-69
2022/12/22 04:52:08;;;;;;;;;;;19.30;45.80;;;;;;5113427;28;19985;-69
2022/12/22 04:54:36;;;;;;;;;;;19.30;45.80;;;;;;5095270;28;19977;-69
2022/12/22 04:57:03;;;;;;;;;;;19.30;45.80;;;;;;5114011;28;19924;-69
2022/12/22 04:59:29;;;;;;;;;;;19.30;45.80;;;;;;5095098;28;19920;-69
2022/12/22 05:01:56;;;;;;;;;;;19.30;45.80;;;;;;5095322;28;19942;-69
2022/12/22 05:04:23;;;;;;;;;;;19.30;45.80;;;;;;5095333;28;19930;-69
2022/12/22 05:06:50;;;;;;;;;;;19.30;45.80;;;;;;5084901;28;19934;-69
2022/12/22 05:09:16;;;;;;;;;;;19.30;45.80;;;;;;5100466;28;19920;-69
2022/12/22 05:11:45;;;;;;;;;;;19.30;45.80;;;;;;5095097;28;19919;-69
2022/12/22 05:14:11;;;;;;;;;;;19.30;45.80;;;;;;5064146;28;19924;-69
2022/12/22 05:16:38;;;;;;;;;;;19.30;45.80;;;;;;5112889;28;19920;-69
2022/12/22 05:19:05;;;;;;;;;;;19.20;45.80;;;;;;5094424;28;19920;-69
2022/12/22 05:21:31;;;;;;;;;;;19.20;45.80;;;;;;5092295;28;19920;-70
2022/12/22 05:23:58;;;;;;;;;;;19.30;45.80;;;;;;5110727;28;19920;-69
2022/12/22 05:26:25;;;;;;;;;;;19.30;45.80;;;;;;5095071;28;19920;-69
2022/12/22 05:28:53;;;;;;;;;;;19.30;45.80;;;;;;5081078;28;19920;-70
2022/12/22 05:31:20;;;;;;;;;;;19.20;45.80;;;;;;5094737;28;19919;-69
2022/12/22 05:33:47;;;;;;;;;;;19.20;45.80;;;;;;5112951;28;19962;-70
2022/12/22 05:36:13;;;;;;;;;;;19.30;45.80;;;;;;5113002;28;19927;-69
2022/12/22 05:38:40;;;;;;;;;;;19.30;45.80;;;;;;5094040;28;19969;-69
2022/12/22 05:41:07;;;;;;;;;;;19.30;45.90;;;;;;5094672;28;19919;-70
2022/12/22 05:43:34;;;;;;;;;;;19.20;45.80;;;;;;5094668;28;19942;-69
2022/12/22 05:46:03;;;;;;;;;;;19.20;45.80;;;;;;5094509;28;19923;-70
2022/12/22 05:48:30;;;;;;;;;;;19.20;45.80;;;;;;5094229;28;19920;-70
2022/12/22 05:50:56;;;;;;;;;;;19.20;45.80;;;;;;5094553;28;19959;-69
2022/12/22 05:53:23;;;;;;;;;;;19.30;45.80;;;;;;5094148;28;19923;-70
2022/12/22 05:55:51;;;;;;;;;;;19.30;45.80;;;;;;5093780;28;19920;-69
2022/12/22 05:58:18;;;;;;;;;;;19.20;45.80;;;;;;5092989;28;20015;-69
2022/12/22 06:00:45;;;;;;;;;;;19.30;45.90;;;;;;5086512;28;20550;-69
2022/12/22 06:03:13;;;;;;;;;;;19.30;45.90;;;;;;5089230;28;19973;-69
2022/12/22 06:05:40;;;;;;;;;;;19.30;45.90;;;;;;5092891;28;19927;-70
2022/12/22 06:08:06;;;;;;;;;;;19.30;45.90;;;;;;5094048;28;19919;-69
2022/12/22 06:10:33;;;;;;;;;;;19.20;45.80;;;;;;5088789;28;19988;-69
2022/12/22 06:13:00;;;;;;;;;;;19.30;45.90;;;;;;5093826;28;19941;-70
2022/12/22 06:15:27;;;;;;;;;;;19.20;45.80;;;;;;5089989;28;19931;-70
2022/12/22 06:17:53;;;;;;;;;;;19.30;45.80;;;;;;5112000;28;19920;-69
2022/12/22 06:20:22;;;;;;;;;;;19.30;45.80;;;;;;5111761;28;19927;-70
2022/12/22 06:22:48;;;;;;;;;;;19.30;45.90;;;;;;5093588;28;19920;-70
2022/12/22 06:25:15;;;;;;;;;;;19.20;45.80;;;;;;5093886;28;19963;-69
2022/12/22 06:27:42;;;;;;;;;;;19.30;45.80;;;;;;5093983;28;19920;-69
2022/12/22 06:30:09;;;;;;;;;;;19.20;45.80;;;;;;5093862;28;19919;-69
2022/12/22 06:32:36;;;;;;;;;;;19.20;45.80;;;;;;5093625;28;20410;-69
2022/12/22 06:35:03;;;;;;;;;;;19.30;45.80;;;;;;5093670;28;19955;-69
2022/12/22 06:37:31;;;;;;;;;;;19.20;45.80;;;;;;5092971;28;19920;-69
2022/12/22 06:39:58;;;;;;;;;;;19.20;45.80;;;;;;5111717;28;19965;-69
2022/12/22 06:45:09;;;;;;;;;;;19.30;45.80;;;;;;5086541;28;19959;-69
2022/12/22 06:47:36;;;;;;;;;;;19.30;45.80;;;;;;5093582;28;20036;-69
2022/12/22 06:50:03;;;;;;;;;;;19.20;45.80;;;;;;5094114;28;19919;-69
2022/12/22 06:52:31;;;;;;;;;;;19.20;45.80;;;;;;5093901;28;20380;-69
2022/12/22 06:54:58;;;;;;;;;;;19.30;45.80;;;;;;5093963;28;20384;-69
2022/12/22 06:57:24;;;;;;;;;;;19.30;45.80;;;;;;5111999;28;19919;-69
2022/12/22 06:59:51;;;;;;;;;;;19.20;45.80;;;;;;5096711;28;19977;-69
2022/12/22 07:02:18;;;;;;;;;;;19.20;45.80;;;;;;5097747;28;19919;-69
2022/12/22 07:04:45;;;;;;;;;;;19.20;45.80;;;;;;5115536;28;19923;-70
2022/12/22 07:07:11;;;;;;;;;;;19.30;45.80;;;;;;5096307;28;19924;-69
2022/12/22 07:09:40;;;;;;;;;;;19.30;45.80;;;;;;5089881;28;19927;-69
2022/12/22 07:12:07;;;;;;;;;;;19.30;45.80;;;;;;5090000;28;19924;-69
2022/12/22 07:14:34;;;;;;;;;;;19.30;45.80;;;;;;5101345;28;20101;-69
2022/12/22 07:17:00;;;;;;;;;;;19.30;45.80;;;;;;5089500;28;19920;-70
2022/12/22 07:19:27;;;;;;;;;;;19.30;45.90;;;;;;5106525;28;19928;-70
2022/12/22 07:21:54;;;;;;;;;;;19.30;45.90;;;;;;5087778;28;19920;-69
2022/12/22 07:24:24;;;;;;;;;;;19.30;45.80;;;;;;5088668;28;19920;-69
2022/12/22 07:26:52;;;;;;;;;;;19.30;45.90;;;;;;5093303;28;19930;-70
2022/12/22 07:29:19;;;;;;;;;;;19.30;45.90;;;;;;5109555;28;19965;-69
2022/12/22 07:31:46;;;;;;;;;;;19.30;45.90;;;;;;5086899;28;19926;-69
2022/12/22 07:34:13;;;;;;;;;;;19.30;45.90;;;;;;5103113;28;19928;-69
2022/12/22 07:36:39;;;;;;;;;;;19.30;45.90;;;;;;5089384;28;19920;-69
2022/12/22 07:39:06;;;;;;;;;;;19.30;45.90;;;;;;5087385;28;19928;-69
2022/12/22 07:44:18;;;;;;;;;;;19.20;45.80;;;;;;5090161;28;19927;-69
2022/12/22 07:46:45;;;;;;;;;;;19.20;45.80;;;;;;5108832;28;19919;-69
2022/12/22 07:51:56;;;;;;;;;;;19.30;45.90;;;;;;5104924;28;20016;-62
2022/12/22 07:54:23;;;;;;;;;;;19.30;45.90;;;;;;5079629;28;19942;-62
2022/12/22 07:56:50;;;;;;;;;;;19.30;45.90;;;;;;5081376;28;19956;-63
2022/12/22 07:59:17;;;;;;;;;;;19.30;45.90;;;;;;5067230;28;19927;-63
2022/12/22 08:01:45;;;;;;;;;;;19.20;45.80;;;;;;5077097;28;19931;-63
2022/12/22 08:04:11;;;;;;;;;;;19.20;45.80;;;;;;5066168;28;19924;-62
2022/12/22 08:06:38;;;;;;;;;;;19.20;45.70;;;;;;5084868;28;20416;-62
2022/12/22 08:09:06;;;;;;;;;;;19.20;45.70;;;;;;5080720;28;19920;-63
2022/12/22 08:11:32;;;;;;;;;;;19.20;45.70;;;;;;5085921;28;19980;-62
2022/12/22 08:13:59;;;;;;;;;;;19.20;45.60;;;;;;5090566;28;19924;-63
2022/12/22 08:16:26;;;;;;;;;;;19.20;45.60;;;;;;5099520;28;19965;-62
2022/12/22 08:18:54;;;;;;;;;;;19.20;45.60;;;;;;5071796;28;19974;-62
2022/12/22 08:21:21;;;;;;;;;;;19.20;46.10;;;;;;5080163;28;19932;-63
2022/12/22 08:23:48;;;;;;;;;;;19.20;45.60;;;;;;5089987;28;19924;-63
2022/12/22 08:26:15;;;;;;;;;;;19.20;45.50;;;;;;5080096;28;19920;-63
2022/12/22 08:28:43;;;;;;;;;;;19.20;45.50;;;;;;5079893;28;20379;-63
2022/12/22 08:31:10;;;;;;;;;;;19.20;45.50;;;;;;5100982;28;19920;-67
2022/12/22 08:33:36;;;;;;;;;;;19.20;45.50;;;;;;5104016;28;19920;-66
2022/12/22 08:36:06;;;;;;;;;;;19.20;45.50;;;;;;5092948;28;19970;-66
2022/12/22 08:38:33;;;;;;;;;;;19.20;45.60;;;;;;5087009;28;19920;-65
2022/12/22 08:40:59;;;;;;;;;;;19.20;45.60;;;;;;5089843;28;19927;-65
2022/12/22 08:43:27;;;;;;;;;;;19.20;45.50;;;;;;5112077;28;19924;-70
2022/12/22 08:45:54;;;;;;;;;;;19.20;45.60;;;;;;5084525;28;19919;-69
2022/12/22 08:48:21;;;;;;;;;;;19.20;45.70;;;;;;5071287;28;19919;-69
2022/12/22 08:50:48;;;;;;;;;;;19.20;45.70;;;;;;5092101;28;19919;-69
2022/12/22 08:53:16;;;;;;;;;;;19.20;45.60;;;;;;5102123;28;19927;-68
2022/12/22 08:55:50;;;;;;;;;;;19.20;45.60;;;;;;5088460;28;19920;-69
2022/12/22 08:58:17;;;;;;;;;;;19.20;45.60;;;;;;5076305;28;19946;-68
2022/12/22 09:00:43;;;;;;;;;;;19.20;45.70;;;;;;5091871;28;19928;-69
2022/12/22 09:03:10;;;;;;;;;;;19.20;45.70;;;;;;5094657;28;19930;-69
2022/12/22 09:05:38;;;;;;;;;;;19.30;45.70;;;;;;5107670;28;19927;-69
2022/12/22 09:08:05;;;;;;;;;;;19.30;45.80;;;;;;5110866;28;19973;-71
2022/12/22 09:10:33;;;;;;;;;;;19.20;45.70;;;;;;5108405;28;19920;-69
2022/12/22 09:13:00;;;;;;;;;;;19.30;45.70;;;;;;5084987;28;19947;-70
2022/12/22 09:15:26;;;;;;;;;;;19.30;45.80;;;;;;5085085;28;19924;-68
2022/12/22 09:17:53;;;;;;;;;;;19.30;45.80;;;;;;5080204;28;19924;-69
2022/12/22 09:20:20;;;;;;;;;;;19.30;45.70;;;;;;5092156;28;19926;-67
2022/12/22 09:22:47;;;;;;;;;;;19.30;45.80;;;;;;5093635;28;19923;-67
2022/12/22 09:25:16;;;;;;;;;;;19.30;45.80;;;;;;5087886;28;19923;-67
2022/12/22 09:27:44;;;;;;;;;;;19.30;45.80;;;;;;5083303;28;19926;-69
2022/12/22 09:30:11;;;;;;;;;;;19.30;45.80;;;;;;5085543;28;19920;-69
2022/12/22 09:32:38;;;;;;;;;;;19.40;45.90;;;;;;5092946;28;20256;-69
2022/12/22 09:35:05;;;;;;;;;;;19.40;45.90;;;;;;5085092;28;19920;-69
2022/12/22 09:37:32;;;;;;;;;;;19.30;45.70;;;;;;5090023;28;19919;-67
2022/12/22 09:39:59;;;;;;;;;;;19.40;45.90;;;;;;5107355;28;19919;-68
2022/12/22 09:42:26;;;;;;;;;;;19.40;45.90;;;;;;5102310;28;19932;-68
2022/12/22 09:44:54;;;;;;;;;;;19.40;45.90;;;;;;5073223;28;19932;-68
2022/12/22 09:47:22;;;;;;;;;;;19.40;45.90;;;;;;5086111;28;19966;-67
2022/12/22 09:49:49;;;;;;;;;;;19.40;45.90;;;;;;5078433;28;19920;-70
2022/12/22 09:52:23;;;;;;;;;;;19.40;45.80;;;;;;5089790;28;20349;-69
2022/12/22 09:54:49;;;;;;;;;;;19.40;45.80;;;;;;5080392;28;19924;-68
2022/12/22 09:57:16;;;;;;;;;;;19.40;45.80;;;;;;5096183;28;20518;-69
2022/12/22 09:59:43;;;;;;;;;;;19.40;45.80;;;;;;5110825;28;19924;-69
2022/12/22 10:02:19;;;;;;;;;;;19.40;45.90;;;;;;5098644;28;19920;-68
2022/12/22 10:04:52;;;;;;;;;;;19.40;45.90;;;;;;5095435;28;19988;-68
2022/12/22 10:07:22;;;;;;;;;;;19.40;45.90;;;;;;5076107;28;19974;-68
2022/12/22 10:09:48;;;;;;;;;;;19.40;45.90;;;;;;5076827;28;19981;-69
2022/12/22 10:12:15;;;;;;;;;;;19.40;45.90;;;;;;5076260;28;19924;-69
2022/12/22 10:14:43;;;;;;;;;;;19.40;45.90;;;;;;5066699;28;19919;-70
2022/12/22 10:17:21;;;;;;;;;;;19.40;45.90;;;;;;5083957;28;19924;-69
2022/12/22 10:19:48;;;;;;;;;;;19.50;45.90;;;;;;5087445;28;20015;-70
2022/12/22 10:22:19;;;;;;;;;;;19.50;45.90;;;;;;5090002;28;19951;-70
2022/12/22 10:24:46;;;;;;;;;;;19.40;45.90;;;;;;5090663;28;19977;-69
2022/12/22 10:27:13;;;;;;;;;;;19.50;45.90;;;;;;5079381;28;19965;-71
2022/12/22 10:29:39;;;;;;;;;;;19.50;45.90;;;;;;5089803;28;19989;-69
2022/12/22 10:32:11;;;;;;;;;;;19.40;45.90;;;;;;5083326;28;19921;-68
2022/12/22 10:34:39;;;;;;;;;;;19.50;45.90;;;;;;5103692;28;19965;-67
2022/12/22 10:37:06;;;;;;;;;;;19.50;45.90;;;;;;5102966;28;19923;-68
2022/12/22 10:39:34;;;;;;;;;;;19.50;46.00;;;;;;5087000;28;19939;-69
2022/12/22 10:42:01;;;;;;;;;;;19.50;45.90;;;;;;5065877;28;19952;-66
2022/12/22 10:44:28;;;;;;;;;;;19.50;46.00;;;;;;5094209;28;20068;-66
2022/12/22 10:46:55;;;;;;;;;;;19.50;45.90;;;;;;5085950;28;20242;-68
2022/12/22 10:49:22;;;;;;;;;;;19.50;45.90;;;;;;5083244;28;19924;-69
2022/12/22 10:51:52;;;;;;;;;;;19.50;45.90;;;;;;5087613;28;20174;-69
2022/12/22 10:54:26;;;;;;;;;;;19.50;45.90;;;;;;5079101;28;19920;-68
2022/12/22 10:57:02;;;;;;;;;;;19.50;45.90;;;;;;5032213;28;19938;-67
2022/12/22 10:59:29;;;;;;;;;;;19.50;45.90;;;;;;5076155;28;20328;-67
2022/12/22 11:01:58;;;;;;;;;;;19.50;46.00;;;;;;5056395;28;21628;-67
2022/12/22 11:04:25;;;;;;;;;;;19.50;46.00;;;;;;5069780;28;19924;-68
2022/12/22 11:06:54;;;;;;;;;;;19.50;46.00;;;;;;5071230;28;20002;-68
2022/12/22 11:09:21;;;;;;;;;;;19.50;46.00;;;;;;5082309;28;19920;-68
2022/12/22 11:11:50;;;;;;;;;;;19.50;46.00;;;;;;5085767;28;19920;-70
2022/12/22 11:14:19;;;;;;;;;;;19.50;46.00;;;;;;5095178;28;19923;-68
2022/12/22 11:16:47;;;;;;;;;;;19.50;46.00;;;;;;5086158;28;19924;-70
2022/12/22 11:19:28;;;;;;;;;;;19.50;46.00;;;;;;5109618;28;19965;-69
2022/12/22 11:21:58;;;;;;;;;;;19.50;46.00;;;;;;5091478;28;19983;-69
2022/12/22 11:24:27;;;;;;;;;;;19.50;46.00;;;;;;5095192;28;19924;-68
2022/12/22 11:26:56;;;;;;;;;;;19.50;46.00;;;;;;5077269;28;20369;-64
2022/12/22 11:29:27;;;;;;;;;;;19.60;46.10;;;;;;5090458;28;19919;-71
2022/12/22 11:31:57;;;;;;;;;;;19.60;46.10;;;;;;5077507;28;19920;-69
2022/12/22 11:34:28;;;;;;;;;;;19.60;46.20;;;;;;5106850;28;19928;-70
2022/12/22 11:36:59;;;;;;;;;;;19.60;46.20;;;;;;5107340;28;19949;-62
2022/12/22 11:39:29;;;;;;;;;;;19.60;46.20;;;;;;5063960;28;19920;-63
2022/12/22 11:41:59;;;;;;;;;;;19.60;46.30;;;;;;5062599;28;19928;-62
2022/12/22 11:44:34;;;;;;;;;;;19.60;46.20;;;;;;5075485;28;20130;-62
2022/12/22 11:47:02;;;;;;;;;;;19.60;46.20;;;;;;5064607;28;19920;-62
2022/12/22 11:49:33;;;;;;;;;;;19.50;46.00;;;;;;5072736;28;19958;-62
2022/12/22 11:52:05;;;;;;;;;;;19.50;46.00;;;;;;5069421;28;19920;-62
2022/12/22 11:54:42;;;;;;;;;;;19.50;45.90;;;;;;5065338;28;19974;-62
2022/12/22 11:57:15;;;;;;;;;;;19.50;45.90;;;;;;5074429;28;19924;-63
2022/12/22 11:59:44;;;;;;;;;;;19.50;45.80;;;;;;5074336;28;19935;-63
2022/12/22 12:02:25;;;;;;;;;;;19.50;45.80;;;;;;5073311;28;19962;-62
2022/12/22 12:04:56;;;;;;;;;;;19.50;45.80;;;;;;5081041;28;19924;-62
2022/12/22 12:07:26;;;;;;;;;;;19.50;45.80;;;;;;5092036;28;19966;-62
2022/12/22 12:09:54;;;;;;;;;;;19.50;45.70;;;;;;5073818;28;19920;-62
2022/12/22 12:12:23;;;;;;;;;;;19.50;45.70;;;;;;5105404;28;20264;-63
2022/12/22 12:14:52;;;;;;;;;;;19.50;45.70;;;;;;5087002;28;19927;-63
2022/12/22 12:17:21;;;;;;;;;;;19.40;45.60;;;;;;5088470;28;19982;-63
2022/12/22 12:20:06;;;;;;;;;;;19.50;45.70;;;;;;5089013;28;19924;-63
2022/12/22 12:22:39;;;;;;;;;;;19.40;45.60;;;;;;5079956;28;19920;-63
2022/12/22 12:25:10;;;;;;;;;;;19.50;45.70;;;;;;5059826;28;19928;-63
2022/12/22 12:27:44;;;;;;;;;;;19.40;45.60;;;;;;5073983;28;19926;-62
2022/12/22 12:30:12;;;;;;;;;;;19.50;45.70;;;;;;5071812;28;19965;-63
2022/12/22 12:32:39;;;;;;;;;;;19.40;45.60;;;;;;5062674;28;20350;-63
2022/12/22 12:35:07;;;;;;;;;;;19.50;45.70;;;;;;5067584;28;19946;-63
2022/12/22 12:37:35;;;;;;;;;;;19.50;45.70;;;;;;5059147;28;19973;-63
2022/12/22 12:40:05;;;;;;;;;;;19.50;45.70;;;;;;5097308;28;20338;-63
2022/12/22 12:42:32;;;;;;;;;;;19.50;45.70;;;;;;5096281;28;19943;-62
2022/12/22 12:45:01;;;;;;;;;;;19.50;45.70;;;;;;5059641;28;19927;-62
2022/12/22 12:47:28;;;;;;;;;;;19.50;45.70;;;;;;5061123;28;19928;-63
2022/12/22 12:49:59;;;;;;;;;;;19.40;45.60;;;;;;5079856;28;19919;-63
2022/12/22 12:52:50;;;;;;;;;;;19.40;45.60;;;;;;5099718;28;19924;-63
2022/12/22 12:55:25;;;;;;;;;;;19.40;45.60;;;;;;5048628;28;19920;-64
2022/12/22 12:57:52;;;;;;;;;;;19.50;45.70;;;;;;5086878;28;19927;-63
2022/12/22 13:00:34;;;;;;;;;;;19.40;45.60;;;;;;5092370;28;19950;-63
2022/12/22 13:03:01;;;;;;;;;;;19.40;45.50;;;;;;5082617;28;19920;-62
2022/12/22 13:05:31;;;;;;;;;;;19.40;45.50;;;;;;5094795;28;19923;-63
2022/12/22 13:08:15;;;;;;;;;;;19.40;45.50;;;;;;5079745;28;19924;-63
2022/12/22 13:10:47;;;;;;;;;;;19.40;45.50;;;;;;5057018;28;19943;-63
2022/12/22 13:13:33;;;;;;;;;;;19.40;45.50;;;;;;5065159;28;19920;-62
2022/12/22 13:16:18;;;;;;;;;;;19.40;45.50;;;;;;5074317;28;19924;-63
2022/12/22 13:18:45;;;;;;;;;;;19.40;45.60;;;;;;5087507;28;19973;-63
2022/12/22 13:21:12;;;;;;;;;;;19.40;45.60;;;;;;5095047;28;19924;-62
2022/12/22 13:23:40;;;;;;;;;;;19.40;45.50;;;;;;5081120;28;19981;-62
2022/12/22 13:26:09;;;;;;;;;;;19.40;45.50;;;;;;5077152;28;19920;-62
2022/12/22 13:28:35;;;;;;;;;;;19.40;45.50;;;;;;5075574;28;19952;-63
2022/12/22 13:31:04;;;;;;;;;;;19.40;45.50;;;;;;5092890;28;19920;-63
2022/12/22 13:33:31;;;;;;;;;;;19.40;45.50;;;;;;5093194;28;19924;-63
2022/12/22 13:35:58;;;;;;;;;;;19.40;45.50;;;;;;5085739;28;20009;-63
2022/12/22 13:38:29;;;;;;;;;;;19.40;45.50;;;;;;5063844;28;19928;-63
2022/12/22 13:40:56;;;;;;;;;;;19.40;45.50;;;;;;5064533;28;20015;-63
2022/12/22 13:43:24;;;;;;;;;;;19.40;45.50;;;;;;5073460;28;19955;-63
2022/12/22 13:45:51;;;;;;;;;;;19.40;45.50;;;;;;5075310;28;19920;-64
2022/12/22 13:48:18;;;;;;;;;;;19.40;45.50;;;;;;5073228;28;19924;-63
2022/12/22 13:50:46;;;;;;;;;;;19.40;45.50;;;;;;5058603;28;19970;-64
2022/12/22 13:53:15;;;;;;;;;;;19.40;45.50;;;;;;5075529;28;19940;-63
2022/12/22 13:55:41;;;;;;;;;;;19.40;45.60;;;;;;5068319;28;19974;-71
2022/12/22 13:58:09;;;;;;;;;;;19.40;45.60;;;;;;5087446;28;19924;-73
2022/12/22 14:00:37;;;;;;;;;;;19.40;45.70;;;;;;5063782;28;20474;-73
2022/12/22 14:03:05;;;;;;;;;;;19.40;45.80;;;;;;5061849;28;19920;-73
2022/12/22 14:05:32;;;;;;;;;;;19.40;45.80;;;;;;5076746;28;20284;-70
2022/12/22 14:08:02;;;;;;;;;;;19.40;45.80;;;;;;5065920;28;19928;-71
2022/12/22 14:10:30;;;;;;;;;;;19.40;45.90;;;;;;5073207;28;19981;-70
2022/12/22 14:12:57;;;;;;;;;;;19.40;45.90;;;;;;5074428;28;19966;-71
2022/12/22 14:15:24;;;;;;;;;;;19.40;46.00;;;;;;5080560;28;19927;-70
2022/12/22 14:17:52;;;;;;;;;;;19.40;46.00;;;;;;5059495;28;19965;-68
2022/12/22 14:20:21;;;;;;;;;;;19.50;46.00;;;;;;5071054;28;21722;-70
2022/12/22 14:22:49;;;;;;;;;;;19.40;46.00;;;;;;5075281;28;19923;-70
2022/12/22 14:25:16;;;;;;;;;;;19.40;46.00;;;;;;5072691;28;19944;-71
2022/12/22 14:27:44;;;;;;;;;;;19.50;46.10;;;;;;5070114;28;19981;-71
2022/12/22 14:30:15;;;;;;;;;;;19.50;46.10;;;;;;5070755;28;19935;-70
2022/12/22 14:32:42;;;;;;;;;;;19.50;46.10;;;;;;5076623;28;20382;-70
2022/12/22 14:35:21;;;;;;;;;;;19.50;46.20;;;;;;5076511;28;19969;-69
2022/12/22 14:37:49;;;;;;;;;;;19.50;46.20;;;;;;5070963;28;19924;-71
2022/12/22 14:40:27;;;;;;;;;;;19.50;46.20;;;;;;5061406;28;20295;-71
2022/12/22 14:42:54;;;;;;;;;;;19.50;46.10;;;;;;5067299;28;19927;-70
2022/12/22 14:45:21;;;;;;;;;;;19.50;46.20;;;;;;5081317;28;19962;-70
2022/12/22 14:47:48;;;;;;;;;;;19.50;46.20;;;;;;5084567;28;19920;-68
2022/12/22 14:50:17;;;;;;;;;;;19.50;46.20;;;;;;5093780;28;19973;-70
2022/12/22 14:52:45;;;;;;;;;;;19.50;46.20;;;;;;5070248;28;19923;-70
2022/12/22 14:55:21;;;;;;;;;;;19.50;46.20;;;;;;5068404;28;19921;-71
2022/12/22 14:57:50;;;;;;;;;;;19.50;46.20;;;;;;5058719;28;19927;-71
2022/12/22 15:00:27;;;;;;;;;;;19.50;46.20;;;;;;5077245;28;19924;-70
2022/12/22 15:02:54;;;;;;;;;;;19.50;46.20;;;;;;5074431;28;19982;-71
2022/12/22 15:05:25;;;;;;;;;;;19.50;46.20;;;;;;5076193;28;19924;-70
2022/12/22 15:07:53;;;;;;;;;;;19.50;46.20;;;;;;5083081;28;20160;-69
2022/12/22 15:10:20;;;;;;;;;;;19.50;46.20;;;;;;5067487;28;19970;-71
2022/12/22 15:12:46;;;;;;;;;;;19.60;46.30;;;;;;5095316;28;19955;-69
2022/12/22 15:15:14;;;;;;;;;;;19.50;46.20;;;;;;5058337;28;20012;-71
2022/12/22 15:17:41;;;;;;;;;;;19.50;46.20;;;;;;5085070;28;19924;-71
2022/12/22 15:20:10;;;;;;;;;;;19.50;46.20;;;;;;5082875;28;19932;-70
2022/12/22 15:22:38;;;;;;;;;;;19.60;46.30;;;;;;5065655;28;19919;-70
2022/12/22 15:25:06;;;;;;;;;;;19.50;46.20;;;;;;5072079;28;19948;-71
2022/12/22 15:27:33;;;;;;;;;;;19.60;46.50;;;;;;5072543;28;19991;-69
2022/12/22 15:29:59;;;;;;;;;;;19.50;46.30;;;;;;5097407;28;20003;-72
2022/12/22 15:32:28;;;;;;;;;;;19.50;46.20;;;;;;5081052;28;19978;-69
2022/12/22 15:34:54;;;;;;;;;;;19.50;46.20;;;;;;5088643;28;19920;-70
2022/12/22 15:37:21;;;;;;;;;;;19.60;46.30;;;;;;5089286;28;19920;-70
2022/12/22 15:39:50;;;;;;;;;;;19.60;46.40;;;;;;5088678;28;19951;-69
2022/12/22 15:42:17;;;;;;;;;;;19.60;46.40;;;;;;5085158;28;19921;-68
2022/12/22 15:44:43;;;;;;;;;;;19.60;46.40;;;;;;5068279;28;19920;-69
2022/12/22 15:47:10;;;;;;;;;;;19.60;46.40;;;;;;5077114;28;19974;-69
2022/12/22 15:49:37;;;;;;;;;;;19.60;46.40;;;;;;5093959;28;19924;-70
2022/12/22 15:52:04;;;;;;;;;;;19.60;46.40;;;;;;5073534;28;20504;-70
2022/12/22 15:54:31;;;;;;;;;;;19.60;46.40;;;;;;5072561;28;19921;-71
2022/12/22 15:57:00;;;;;;;;;;;19.60;46.40;;;;;;5082530;28;19969;-69
2022/12/22 15:59:27;;;;;;;;;;;19.60;46.40;;;;;;5077262;28;19924;-71
2022/12/22 16:01:55;;;;;;;;;;;19.60;46.40;;;;;;5067726;28;20147;-71
2022/12/22 16:04:22;;;;;;;;;;;19.60;46.40;;;;;;5102293;28;19946;-71
2022/12/22 16:06:49;;;;;;;;;;;19.60;46.40;;;;;;5075842;28;19924;-73
2022/12/22 16:09:17;;;;;;;;;;;19.70;46.50;;;;;;5097935;28;19920;-70
2022/12/22 16:11:43;;;;;;;;;;;19.60;46.40;;;;;;5078033;28;19959;-71
2022/12/22 16:14:12;;;;;;;;;;;19.70;46.50;;;;;;5068855;28;19932;-70
2022/12/22 16:16:40;;;;;;;;;;;19.60;46.50;;;;;;5073355;28;19932;-70
2022/12/22 16:19:08;;;;;;;;;;;19.60;46.50;;;;;;5070264;28;23062;-70
2022/12/22 16:21:34;;;;;;;;;;;19.70;46.60;;;;;;5057796;28;19935;-70
2022/12/22 16:24:02;;;;;;;;;;;19.60;46.50;;;;;;5066459;28;19928;-70
2022/12/22 16:26:29;;;;;;;;;;;19.70;46.60;;;;;;5072882;28;19924;-70
2022/12/22 16:28:57;;;;;;;;;;;19.60;46.50;;;;;;5085222;28;20282;-71
2022/12/22 16:31:25;;;;;;;;;;;19.60;46.40;;;;;;5070352;28;19927;-71
2022/12/22 16:33:52;;;;;;;;;;;19.70;47.10;;;;;;5062684;28;19921;-70
2022/12/22 16:36:19;;;;;;;;;;;19.60;46.40;;;;;;5092550;28;19920;-70
2022/12/22 16:38:46;;;;;;;;;;;19.70;46.50;;;;;;5080777;28;19978;-70
2022/12/22 16:41:17;;;;;;;;;;;19.60;46.40;;;;;;5082528;28;19920;-69
2022/12/22 16:43:44;;;;;;;;;;;19.60;46.40;;;;;;5093115;28;19928;-71
2022/12/22 16:46:13;;;;;;;;;;;19.60;46.40;;;;;;5092622;28;20031;-71
2022/12/22 16:48:42;;;;;;;;;;;19.60;46.40;;;;;;5063845;28;20378;-70
2022/12/22 16:51:09;;;;;;;;;;;19.60;46.40;;;;;;5068066;28;20031;-71
2022/12/22 16:53:36;;;;;;;;;;;19.60;46.40;;;;;;5066249;28;19924;-71
2022/12/22 16:56:03;;;;;;;;;;;19.60;46.40;;;;;;5067666;28;20019;-71
2022/12/22 16:58:29;;;;;;;;;;;19.60;46.50;;;;;;5061469;28;19931;-71
2022/12/22 17:00:56;;;;;;;;;;;19.60;46.40;;;;;;5068359;28;19924;-71
2022/12/22 17:03:24;;;;;;;;;;;19.60;46.40;;;;;;5057225;28;19952;-71
2022/12/22 17:05:52;;;;;;;;;;;19.60;46.40;;;;;;5064744;28;20467;-71
2022/12/22 17:08:20;;;;;;;;;;;19.60;46.40;;;;;;5070159;28;20255;-71
2022/12/22 17:10:47;;;;;;;;;;;19.60;46.40;;;;;;5076693;28;19920;-71
2022/12/22 17:13:14;;;;;;;;;;;19.60;46.40;;;;;;5066707;28;19928;-71
2022/12/22 17:15:41;;;;;;;;;;;19.60;46.40;;;;;;5073384;28;19928;-71
2022/12/22 17:18:13;;;;;;;;;;;19.60;46.40;;;;;;5068403;28;20289;-71
2022/12/22 17:20:40;;;;;;;;;;;19.60;46.40;;;;;;5068060;28;19982;-71
2022/12/22 17:23:10;;;;;;;;;;;19.60;46.40;;;;;;5079038;28;19977;-71
2022/12/22 17:25:37;;;;;;;;;;;19.60;46.40;;;;;;5083382;28;19966;-71
2022/12/22 17:28:04;;;;;;;;;;;19.60;46.40;;;;;;5085304;28;19920;-71
2022/12/22 17:30:30;;;;;;;;;;;19.60;46.20;;;;;;5074559;28;19955;-70
2022/12/22 17:32:57;;;;;;;;;;;19.60;46.20;;;;;;5068786;28;19966;-71
2022/12/22 17:35:27;;;;;;;;;;;19.60;46.10;;;;;;5080117;28;19920;-71
2022/12/22 17:37:54;;;;;;;;;;;19.60;46.10;;;;;;5073354;28;19921;-71
2022/12/22 17:40:23;;;;;;;;;;;19.60;46.10;;;;;;5072068;28;20409;-70
2022/12/22 17:42:50;;;;;;;;;;;19.50;46.00;;;;;;5069270;28;19924;-70
2022/12/22 17:45:17;;;;;;;;;;;19.60;46.10;;;;;;5053977;28;19931;-70
2022/12/22 17:47:44;;;;;;;;;;;19.60;46.20;;;;;;5056674;28;19925;-70
2022/12/22 17:50:11;;;;;;;;;;;19.60;46.10;;;;;;5080045;28;19920;-70
2022/12/22 17:52:38;;;;;;;;;;;19.50;46.10;;;;;;5072819;28;19920;-70
2022/12/22 17:55:05;;;;;;;;;;;19.50;46.10;;;;;;5088420;28;19920;-70
2022/12/22 17:57:34;;;;;;;;;;;19.60;46.20;;;;;;5068375;28;19970;-70
2022/12/22 18:00:01;;;;;;;;;;;19.60;46.20;;;;;;5073326;28;20255;-71
2022/12/22 18:02:28;;;;;;;;;;;19.60;46.20;;;;;;5077159;28;19924;-71
2022/12/22 18:04:55;;;;;;;;;;;19.50;46.10;;;;;;5076206;28;19920;-70